• Join FlightAware (Why Join?)
  • Login
  • US Flag 
04:33PM EDT


 

Airport Tracker/Info


-or-


 

Live Flight TrackerFlight Track Log ✈ FLG3735 ✈ 19-May-2013 ✈ KDTW - KALB

Flight Track Log - Related Links

Times and Time Zones

All times are in EDT time to prevent confusion due to time zone crossing. See the FLG3735 flight status page for this flight to view local times or setup timezone preferences in your user account.

Time Position Orientation Groundspeed Altitude Reporting Facility
EDT Latitude Longitude Course Direction KTS MPH feet Rate Location/Type
08:09PM 42.1994 -83.3608 56° Northeast 172 198 1,200  Level Cleveland Center
08:11PM 42.1181 -83.3658 183° South 218 251 4,100 1,980 Climbing Cleveland Center
08:12PM 42.2854 -82.9065 75° East  Level FlightAware Approximate
08:12PM 42.0653 -83.3019 138° Southeast 277 319 6,500  Level Cleveland Center
08:13PM 42.3149 -82.7589 75° East  Level FlightAware Approximate
08:13PM 42.0389 -83.1833 107° East 302 348 9,200  Level Cleveland Center
08:14PM 42.3309 -82.6075 82° East  Level FlightAware Approximate
08:14PM 42.0608 -83.1283 62° Northeast 290 334 10,000  Level Cleveland Center
08:15PM 42.3604 -82.4626 56° Northeast  Level FlightAware Approximate
08:15PM 42.1067 -83.0350 56° Northeast 290 334 12,000  Level Cleveland Center
08:16PM 42.1550 -82.9247 59° Northeast 308 354 13,000 1,500 Climbing Cleveland Center
08:17PM 42.2072 -82.8089 59° Northeast 333 383 15,000 1,800 Climbing Cleveland Center
08:18PM 42.2594 -82.6931 59° Northeast 346 398 16,600 1,440 Climbing Cleveland Center
08:19PM 42.3117 -82.5767 59° Northeast 359 413 17,900 1,500 Climbing Cleveland Center
08:20PM 42.3617 -82.4547 61° Northeast 359 413 19,700 1,620 Climbing Cleveland Center
08:21PM 42.3617 -82.3142 90° East 354 407 21,200 1,020 Climbing Cleveland Center
08:22PM 42.3533 -82.1678 94° East 365 420 21,800 600 Climbing Cleveland Center
08:23PM 42.3492 -82.0075 92° East 408 470 22,500 600 Climbing Cleveland Center
08:24PM 42.3428 -81.8444 93° East 431 496 23,000 480 Climbing Cleveland Center
08:25PM 42.3342 -81.6644 94° East 438 504 23,500 480 Climbing Cleveland Center
08:26PM 42.3253 -81.4931 94° East 447 514 24,000 480 Climbing Cleveland Center
08:27PM 42.3181 -81.3217 93° East 458 527 24,500 540 Climbing Cleveland Center
08:28PM 42.3108 -81.1447 93° East 463 533 25,100 540 Climbing Cleveland Center
08:29PM 42.2992 -80.9706 95° East 463 533 25,600 480 Climbing Cleveland Center
08:30PM 42.2911 -80.7908 93° East 468 539 26,100 480 Climbing Cleveland Center
08:31PM 42.2997 -80.6169 86° East 461 531 26,600 420 Climbing Cleveland Center
08:32PM 42.3142 -80.4625 83° East 461 531 27,000 180 Climbing Cleveland Center
08:33PM 42.3306 -80.2856 83° East 467 537 27,000  Level Cleveland Center
08:34PM 42.3467 -80.1083 83° East 461 531 27,000  Level Cleveland Center
08:35PM 42.3644 -79.9172 83° East 471 542 27,000  Level Cleveland Center
08:36PM 42.3781 -79.7428 84° East 471 542 27,000  Level Cleveland Center
08:37PM 42.3975 -79.5656 81° East 466 536 27,000  Level Cleveland Center
08:38PM 42.4106 -79.4050 84° East 466 536 27,000  Level Cleveland Center
08:39PM 42.4231 -79.2275 84° East 472 543 27,000  Level Cleveland Center
08:40PM 42.4394 -79.0469 83° East 472 543 27,000  Level Cleveland Center
08:41PM 42.4575 -78.8467 83° East 483 556 27,000  Level Cleveland Center
08:42PM 42.4714 -78.6692 84° East 483 556 27,000  Level Cleveland Center
08:43PM 42.4869 -78.4828 83° East 483 556 27,000  Level Cleveland Center
08:44PM 42.5003 -78.3019 84° East 483 556 27,000  Level Cleveland Center
08:45PM 42.5131 -78.1183 85° East 483 556 27,000  Level Cleveland Center
08:46PM 42.5258 -77.9378 84° East 483 556 27,000  Level Cleveland Center
08:47PM 42.5342 -77.7683 86° East 488 562 27,000  Level Cleveland Center
08:48PM 42.5525 -77.5842 82° East 488 562 27,000  Level Cleveland Center
08:49PM 42.5644 -77.4003 85° East 488 562 27,000  Level Cleveland Center
08:50PM 42.5858 -77.0572 85° East 479 551 27,000  Level Boston Center
08:51PM 42.5975 -76.8689 85° East 484 557 27,000  Level Boston Center
08:52PM 42.6089 -76.6836 85° East 484 557 27,000  Level Boston Center
08:53PM 42.6197 -76.4950 85° East 489 563 27,000 -360 Level Boston Center
08:54PM 42.6325 -76.3097 85° East 494 568 26,300 -900 Descending Boston Center
08:55PM 42.6422 -76.1436 85° East 494 568 25,300 -1,020 Descending Boston Center
08:56PM 42.6500 -75.9633 87° East 494 568 24,300 -960 Descending Boston Center
08:57PM 42.6597 -75.7861 86° East 481 554 23,400 -1,200 Descending Boston Center
08:58PM 42.6667 -75.6142 87° East 467 537 22,000 -1,500 Descending Boston Center
08:59PM 42.6769 -75.4619 85° East 436 502 20,500 -1,500 Descending Boston Center
09:00PM 42.6853 -75.3042 86° East 421 484 19,000 -1,440 Descending Boston Center
09:01PM 42.6911 -75.1519 87° East 410 472 17,700 -1,440 Descending Boston Center
09:02PM 42.7194 -75.0061 75° East 400 460 16,200 -1,560 Descending Boston Center
09:03PM 42.7353 -74.9475 70° East 403 464 15,600 -1,500 Descending Boston Center
09:03PM 42.7561 -74.8636 71° East 395 455 14,700 -1,500 Descending Boston Center
09:04PM 42.7806 -74.7797 68° East 380 437 13,800 -1,440 Descending Boston Center
09:04PM 42.7986 -74.7208 67° East 375 432 13,300 -1,140 Descending Boston Center
09:05PM 42.8186 -74.6536 68° East 352 405 12,700 -900 Descending Boston Center
09:05PM 42.8297 -74.6144 69° East 349 402 12,400 -1,020 Descending Boston Center
09:06PM 42.8542 -74.5389 66° East 335 386 11,700 -1,140 Descending Boston Center
09:06PM 42.8656 -74.4797 75° East 343 395 11,300 -1,020 Descending Boston Center
09:07PM 42.8731 -74.4147 81° East 320 368 10,700 -1,200 Descending Boston Center
09:07PM 42.8758 -74.3753 84° East 323 372 10,100 -1,680 Descending Boston Center
09:08PM 42.8833 -74.2933 83° East 296 341 9,000 -1,740 Descending Boston Center
09:08PM 42.8883 -74.2536 80° East 298 343 8,400 -1,500 Descending Boston Center
09:09PM 42.8933 -74.1886 84° East 280 322 7,500 -1,440 Descending Boston Center
09:09PM 42.8958 -74.1603 83° East 286 329 7,000 -1,500 Descending Boston Center
09:10PM 42.9011 -74.0869 84° East 271 312 6,000 -1,620 Descending Boston Center
09:10PM 42.9058 -74.0472 81° East 276 318 5,400 -1,500 Descending Boston Center
09:11PM 42.9131 -73.9794 82° East 286 329 4,500 -1,380 Descending Boston Center
09:11PM 42.9136 -73.9483 89° East 276 318 4,000 -1,500 Descending Boston Center
09:12PM 42.9247 -73.8778 78° East 258 297 3,000 -1,440 Descending Boston Center
09:12PM 42.9169 -73.8492 110° East 248 285 2,600 -900 Descending Boston Center
09:13PM 42.8900 -73.8203 142° Southeast 159 183 2,000 -600 Descending Boston Center
09:13PM 42.8797 -73.8114 148° Southeast 169 194 2,000  Level Boston Center